Time;durP1;ratioP1;P1;durP2;ratioP2;P2;SDS_P1;SDS_P2;PMS_P1;PMS_P2;Temp;Humidity;BMP_temperature;BMP_pressure;BME280_temperature;BME280_humidity;BME280_pressure;Samples;Min_cycle;Max_cycle;Signal;HPM_P1;HPM_P2
2022/03/10 00:01:22;;;;;;;25.50;13.83;;;5.90;11.70;;;;;;4913095;29;20458;-75
2022/03/10 00:03:48;;;;;;;24.97;13.40;;;5.80;11.20;;;;;;4912979;29;20447;-76
2022/03/10 00:06:13;;;;;;;23.50;13.38;;;5.90;11.50;;;;;;4914949;29;20440;-76
2022/03/10 00:08:39;;;;;;;23.58;13.40;;;5.80;11.40;;;;;;4913504;29;20422;-75
2022/03/10 00:11:06;;;;;;;22.60;13.52;;;5.90;11.60;;;;;;4912585;29;20433;-76
2022/03/10 00:13:31;;;;;;;25.95;14.18;;;5.90;11.80;;;;;;4912976;29;20448;-76
2022/03/10 00:15:59;;;;;;;26.07;13.20;;;5.80;11.50;;;;;;4912430;29;20922;-75
2022/03/10 00:18:27;;;;;;;34.63;13.90;;;5.80;11.50;;;;;;4910967;29;20441;-74
2022/03/10 00:20:53;;;;;;;28.27;14.23;;;5.80;12.00;;;;;;4912825;29;20420;-76
2022/03/10 00:23:19;;;;;;;25.27;13.30;;;5.80;11.80;;;;;;4913106;29;20922;-75
2022/03/10 00:25:44;;;;;;;23.35;12.95;;;5.80;11.40;;;;;;4913059;29;20775;-75
2022/03/10 00:28:10;;;;;;;25.17;14.20;;;5.80;11.80;;;;;;4913313;29;20409;-75
2022/03/10 00:30:36;;;;;;;26.15;14.32;;;5.70;11.70;;;;;;4913124;29;20416;-75
2022/03/10 00:33:02;;;;;;;23.00;12.90;;;5.70;11.60;;;;;;4913871;29;20414;-74
2022/03/10 00:35:28;;;;;;;24.40;13.60;;;5.60;11.90;;;;;;4950822;28;20551;-75
2022/03/10 00:37:55;;;;;;;25.27;13.05;;;5.60;12.30;;;;;;4915426;29;20413;-75
2022/03/10 00:40:20;;;;;;;23.23;13.48;;;5.60;13.70;;;;;;4913525;29;20480;-75
2022/03/10 00:42:46;;;;;;;22.00;14.02;;;5.50;12.80;;;;;;4912472;29;20409;-75
2022/03/10 00:45:13;;;;;;;25.60;13.67;;;5.40;12.80;;;;;;4911987;29;20410;-74
2022/03/10 00:47:39;;;;;;;27.58;14.85;;;5.40;13.00;;;;;;4912190;29;20424;-74
2022/03/10 00:50:07;;;;;;;23.15;14.40;;;5.40;13.00;;;;;;4912770;29;20770;-74
2022/03/10 00:52:33;;;;;;;24.75;14.40;;;5.40;13.00;;;;;;4913486;29;20413;-74
2022/03/10 00:54:58;;;;;;;26.25;14.35;;;5.30;12.80;;;;;;4920192;29;20424;-74
2022/03/10 00:57:24;;;;;;;24.48;14.30;;;5.30;13.30;;;;;;4927112;28;20783;-75
2022/03/10 00:59:50;;;;;;;25.15;13.60;;;5.40;13.10;;;;;;4926649;28;20401;-75
2022/03/10 01:02:23;;;;;;;22.43;13.63;;;5.30;13.00;;;;;;4913937;29;20424;-75
2022/03/10 01:04:48;;;;;;;23.88;13.45;;;5.30;13.30;;;;;;4927815;28;20512;-75
2022/03/10 01:07:14;;;;;;;27.63;14.23;;;5.30;13.20;;;;;;4912928;29;20449;-74
2022/03/10 01:09:40;;;;;;;26.40;14.13;;;5.20;13.50;;;;;;4913097;29;20413;-75
2022/03/10 01:12:14;;;;;;;27.60;14.27;;;5.20;13.50;;;;;;4912260;29;20420;-76
2022/03/10 01:14:39;;;;;;;25.02;13.85;;;5.10;14.20;;;;;;4913603;29;20409;-75
2022/03/10 01:17:05;;;;;;;25.58;13.80;;;5.10;14.20;;;;;;4911970;29;22302;-74
2022/03/10 01:19:33;;;;;;;26.37;14.20;;;5.10;14.00;;;;;;4913953;29;20429;-76
2022/03/10 01:21:59;;;;;;;25.67;14.95;;;5.10;14.40;;;;;;4913849;29;20419;-76
2022/03/10 01:24:24;;;;;;;25.60;13.80;;;5.10;13.80;;;;;;4912959;29;20468;-75
2022/03/10 01:26:51;;;;;;;23.67;13.17;;;5.10;14.80;;;;;;4910834;29;20471;-75
2022/03/10 01:29:17;;;;;;;27.10;14.50;;;5.10;14.50;;;;;;4911974;29;20417;-73
2022/03/10 01:31:42;;;;;;;26.67;14.48;;;5.10;14.50;;;;;;4911279;29;20405;-74
2022/03/10 01:34:08;;;;;;;21.42;12.70;;;5.10;14.50;;;;;;4911420;29;20847;-76
2022/03/10 01:36:34;;;;;;;26.33;14.40;;;5.10;14.50;;;;;;4910912;29;20421;-74
2022/03/10 01:39:04;;;;;;;24.55;14.30;;;5.10;14.40;;;;;;4911303;29;20441;-74
2022/03/10 01:41:33;;;;;;;25.55;15.00;;;5.10;14.80;;;;;;4911845;29;20906;-74
2022/03/10 01:44:08;;;;;;;24.10;15.10;;;5.00;14.20;;;;;;4911313;29;20402;-74
2022/03/10 01:46:35;;;;;;;26.02;14.65;;;5.10;15.30;;;;;;4914192;23;20444;-74
2022/03/10 01:49:02;;;;;;;24.25;13.52;;;4.90;15.00;;;;;;4930067;28;20403;-74
2022/03/10 01:51:29;;;;;;;29.65;14.55;;;4.90;15.40;;;;;;4930702;29;20408;-74
2022/03/10 01:53:55;;;;;;;27.98;14.50;;;4.90;14.60;;;;;;4930312;29;20415;-74
2022/03/10 01:56:22;;;;;;;24.40;13.77;;;4.90;14.90;;;;;;4931768;28;20416;-74
2022/03/10 01:58:50;;;;;;;27.00;15.13;;;4.80;15.00;;;;;;4930405;29;20414;-73
2022/03/10 02:01:16;;;;;;;25.02;13.95;;;4.70;15.30;;;;;;4929389;28;20400;-74
2022/03/10 02:03:42;;;;;;;24.13;13.63;;;4.60;15.60;;;;;;4909846;29;20450;-74
2022/03/10 02:06:09;;;;;;;27.88;14.52;;;4.70;15.10;;;;;;4913442;28;20419;-74
2022/03/10 02:11:20;;;;;;;28.50;15.40;;;4.70;15.40;;;;;;4929960;29;20460;-74
2022/03/10 02:13:46;;;;;;;26.08;14.30;;;4.80;15.60;;;;;;4930300;29;20476;-73
2022/03/10 02:18:58;;;;;;;27.35;14.52;;;4.70;15.80;;;;;;4929113;29;20414;-73
2022/03/10 02:21:24;;;;;;;24.60;14.83;;;4.70;15.80;;;;;;4916262;29;20412;-74
2022/03/10 02:23:50;;;;;;;27.20;14.73;;;4.70;16.30;;;;;;4933360;29;20407;-74
2022/03/10 02:26:16;;;;;;;25.60;14.37;;;4.70;16.00;;;;;;4932304;28;20411;-72
2022/03/10 02:28:42;;;;;;;25.85;15.50;;;4.70;16.10;;;;;;4933125;28;20419;-72
2022/03/10 02:31:08;;;;;;;28.63;15.10;;;4.70;16.20;;;;;;4932990;29;20469;-73
2022/03/10 02:33:34;;;;;;;28.27;14.27;;;4.70;15.70;;;;;;4932425;29;20450;-74
2022/03/10 02:36:00;;;;;;;30.50;15.18;;;4.80;15.40;;;;;;4933089;28;20447;-74
2022/03/10 02:38:26;;;;;;;26.98;14.68;;;4.90;15.70;;;;;;4932767;29;20449;-74
2022/03/10 02:40:52;;;;;;;28.23;15.25;;;4.90;16.20;;;;;;4915544;29;20456;-74
2022/03/10 02:43:19;;;;;;;26.95;15.05;;;4.90;16.00;;;;;;4932669;29;20886;-74
2022/03/10 02:45:45;;;;;;;32.00;15.52;;;4.80;15.50;;;;;;4934153;28;20493;-73
2022/03/10 02:48:15;;;;;;;26.33;15.30;;;4.80;16.40;;;;;;4932190;29;20565;-73
2022/03/10 02:50:42;;;;;;;32.63;17.63;;;4.80;15.80;;;;;;4929645;29;20418;-74
2022/03/10 02:53:08;;;;;;;38.38;22.40;;;4.70;16.10;;;;;;4932449;28;20427;-73
2022/03/10 02:55:34;;;;;;;39.63;23.20;;;4.70;16.10;;;;;;4932734;29;20423;-74
2022/03/10 02:58:00;;;;;;;44.00;22.80;;;4.70;16.50;;;;;;4915504;28;20412;-74
2022/03/10 03:00:26;;;;;;;43.50;22.75;;;4.70;16.30;;;;;;4932603;29;20435;-74
2022/03/10 03:02:52;;;;;;;44.60;20.97;;;4.60;16.60;;;;;;4932132;29;20406;-74
2022/03/10 03:05:17;;;;;;;36.47;19.85;;;4.60;16.50;;;;;;4933031;28;20403;-74
2022/03/10 03:07:48;;;;;;;41.47;19.42;;;4.60;16.40;;;;;;4915740;28;20792;-74
2022/03/10 03:10:14;;;;;;;36.97;18.38;;;4.50;16.60;;;;;;4932253;29;20446;-74
2022/03/10 03:12:51;;;;;;;33.90;18.40;;;5.10;17.10;;;;;;4932318;29;20509;-74
2022/03/10 03:15:17;;;;;;;30.92;17.85;;;4.50;17.40;;;;;;4914790;29;20426;-74
2022/03/10 03:17:43;;;;;;;32.22;17.90;;;4.40;16.90;;;;;;4932574;28;20415;-75
2022/03/10 03:20:14;;;;;;;33.17;17.85;;;4.40;17.20;;;;;;4933503;29;20416;-74
2022/03/10 03:22:40;;;;;;;29.40;17.85;;;4.50;17.00;;;;;;4933012;28;20757;-74
2022/03/10 03:25:06;;;;;;;34.03;17.07;;;4.50;17.30;;;;;;4932475;29;20439;-74
2022/03/10 03:27:32;;;;;;;32.50;17.60;;;4.50;17.50;;;;;;4932136;28;20404;-73
2022/03/10 03:29:57;;;;;;;33.73;16.80;;;4.50;17.50;;;;;;4932251;28;20416;-73
2022/03/10 03:32:23;;;;;;;31.37;17.73;;;4.50;17.80;;;;;;4932076;29;20431;-75
2022/03/10 03:34:49;;;;;;;32.50;17.70;;;4.40;17.90;;;;;;4931851;29;20831;-74
2022/03/10 03:37:14;;;;;;;33.65;18.02;;;4.40;18.20;;;;;;4932188;28;20403;-74
2022/03/10 03:39:40;;;;;;;37.38;17.35;;;4.30;18.10;;;;;;4928433;28;20411;-73
2022/03/10 03:42:06;;;;;;;32.77;18.33;;;4.20;18.20;;;;;;4916033;28;20923;-73
2022/03/10 03:44:32;;;;;;;33.25;17.73;;;4.10;18.40;;;;;;4932463;28;20895;-74
2022/03/10 03:46:57;;;;;;;33.50;17.45;;;4.10;18.80;;;;;;4914035;28;20415;-73
2022/03/10 03:49:23;;;;;;;34.37;17.30;;;4.00;18.90;;;;;;4931400;29;20446;-72
2022/03/10 03:51:49;;;;;;;33.80;17.77;;;4.00;19.20;;;;;;4933307;28;20410;-72
2022/03/10 03:54:14;;;;;;;32.37;17.00;;;4.00;18.90;;;;;;4932222;29;20422;-73
2022/03/10 03:56:40;;;;;;;29.52;17.70;;;4.00;19.50;;;;;;4931777;28;20428;-72
2022/03/10 03:59:06;;;;;;;31.60;18.05;;;4.00;18.70;;;;;;4931496;29;20904;-73
2022/03/10 04:01:32;;;;;;;33.22;16.92;;;4.00;18.80;;;;;;4932953;28;20487;-72
2022/03/10 04:03:57;;;;;;;34.63;17.90;;;3.90;19.00;;;;;;4924483;29;20459;-72
2022/03/10 04:06:24;;;;;;;36.77;18.37;;;3.90;19.40;;;;;;4931641;28;20424;-72
2022/03/10 04:08:50;;;;;;;32.67;18.17;;;3.90;19.40;;;;;;4931285;29;20408;-74
2022/03/10 04:11:17;;;;;;;38.20;18.50;;;3.90;19.40;;;;;;4927206;28;20418;-73
2022/03/10 04:13:42;;;;;;;32.67;17.83;;;3.90;19.10;;;;;;4931828;28;20420;-73
2022/03/10 04:16:08;;;;;;;33.10;18.00;;;3.90;19.20;;;;;;4931601;28;20465;-73
2022/03/10 04:18:34;;;;;;;32.88;17.13;;;3.80;19.10;;;;;;4931683;28;20403;-72
2022/03/10 04:21:00;;;;;;;34.03;17.05;;;3.90;19.60;;;;;;4932597;28;20400;-74
2022/03/10 04:23:28;;;;;;;32.93;16.83;;;3.90;19.70;;;;;;4930501;29;20774;-73
2022/03/10 04:25:54;;;;;;;31.03;16.83;;;3.90;19.40;;;;;;4931066;28;20491;-73
2022/03/10 04:28:20;;;;;;;32.13;17.08;;;3.90;19.50;;;;;;4931289;28;20818;-74
2022/03/10 04:30:46;;;;;;;28.67;17.13;;;4.00;19.20;;;;;;4931854;29;20494;-73
2022/03/10 04:33:12;;;;;;;33.33;15.80;;;3.90;19.10;;;;;;4930872;29;20476;-73
2022/03/10 04:35:38;;;;;;;27.93;16.27;;;3.90;19.40;;;;;;4931877;28;20411;-74
2022/03/10 04:38:03;;;;;;;28.73;15.77;;;3.90;19.10;;;;;;4918037;28;20800;-73
2022/03/10 04:40:29;;;;;;;29.48;16.52;;;3.90;19.60;;;;;;4939318;29;20436;-75
2022/03/10 04:42:55;;;;;;;30.10;15.60;;;3.90;19.70;;;;;;4934660;29;20443;-73
2022/03/10 04:45:21;;;;;;;33.53;17.05;;;3.90;19.70;;;;;;4938273;29;20415;-73
2022/03/10 04:47:47;;;;;;;31.47;16.30;;;3.80;19.30;;;;;;4939411;28;20552;-73
2022/03/10 04:50:14;;;;;;;33.78;16.13;;;3.80;19.40;;;;;;4936341;29;20427;-73
2022/03/10 04:52:41;;;;;;;30.63;15.90;;;3.80;19.50;;;;;;4933069;29;20502;-73
2022/03/10 04:55:07;;;;;;;28.90;15.50;;;3.80;19.10;;;;;;4930887;29;20481;-73
2022/03/10 04:57:34;;;;;;;30.27;16.33;;;3.80;19.40;;;;;;4914397;28;20443;-73
2022/03/10 04:59:59;;;;;;;28.23;15.35;;;3.80;19.30;;;;;;4931192;29;20899;-73
2022/03/10 05:02:25;;;;;;;28.15;16.15;;;3.80;19.70;;;;;;4931050;29;20510;-73
2022/03/10 05:04:50;;;;;;;28.90;15.48;;;3.80;19.30;;;;;;4931281;28;20884;-74
2022/03/10 05:07:16;;;;;;;30.70;16.63;;;3.80;19.50;;;;;;4931003;28;20476;-73
2022/03/10 05:09:42;;;;;;;27.88;15.45;;;3.80;19.50;;;;;;4931470;28;20407;-73
2022/03/10 05:12:07;;;;;;;33.27;16.83;;;3.80;19.70;;;;;;4930849;29;20416;-73
2022/03/10 05:14:33;;;;;;;30.35;17.08;;;3.80;19.40;;;;;;4930352;28;20430;-74
2022/03/10 05:16:59;;;;;;;27.75;16.15;;;3.80;19.50;;;;;;4912882;28;20407;-74
2022/03/10 05:19:24;;;;;;;26.45;15.35;;;3.80;19.90;;;;;;4928497;29;20440;-74
2022/03/10 05:21:50;;;;;;;29.53;15.80;;;3.70;20.00;;;;;;4929297;28;20414;-74
2022/03/10 05:24:16;;;;;;;31.27;16.13;;;3.70;20.00;;;;;;4930607;29;20417;-73
2022/03/10 05:26:42;;;;;;;30.17;16.17;;;3.60;20.00;;;;;;4931261;28;20462;-73
2022/03/10 05:29:11;;;;;;;30.90;16.50;;;3.60;20.20;;;;;;4932200;28;20416;-73
2022/03/10 05:31:37;;;;;;;29.45;15.50;;;3.60;20.00;;;;;;4932259;28;20415;-72
2022/03/10 05:34:03;;;;;;;30.30;15.80;;;3.60;20.20;;;;;;4931275;28;20447;-73
2022/03/10 05:36:28;;;;;;;29.13;15.63;;;3.60;20.90;;;;;;4913603;28;20451;-72
2022/03/10 05:38:54;;;;;;;27.97;15.73;;;3.60;20.30;;;;;;4932747;28;20408;-73
2022/03/10 05:41:19;;;;;;;30.00;16.10;;;3.50;20.80;;;;;;4932458;29;20438;-73
2022/03/10 05:43:45;;;;;;;27.67;15.80;;;3.40;21.20;;;;;;4933566;28;20408;-74
2022/03/10 05:46:11;;;;;;;27.97;16.10;;;3.40;20.70;;;;;;4934572;28;20411;-75
2022/03/10 05:48:36;;;;;;;30.50;15.75;;;3.40;22.50;;;;;;4931952;28;20426;-74
2022/03/10 05:51:02;;;;;;;28.45;15.70;;;3.50;21.20;;;;;;4907904;29;20408;-73
2022/03/10 05:53:28;;;;;;;31.45;15.45;;;3.40;21.20;;;;;;4930549;28;20435;-73
2022/03/10 05:55:53;;;;;;;34.77;16.97;;;3.40;21.10;;;;;;4929876;28;20444;-73
2022/03/10 05:58:19;;;;;;;29.77;16.20;;;3.40;21.30;;;;;;4931752;29;20408;-74
2022/03/10 06:00:44;;;;;;;28.97;16.53;;;3.40;21.40;;;;;;4930653;28;20404;-73
2022/03/10 06:03:10;;;;;;;29.88;16.20;;;3.50;21.50;;;;;;4931614;28;20411;-73
2022/03/10 06:05:36;;;;;;;31.63;16.20;;;3.40;20.70;;;;;;4929842;29;20415;-74
2022/03/10 06:08:02;;;;;;;32.10;16.40;;;3.50;20.80;;;;;;4929494;28;20886;-75
2022/03/10 06:10:28;;;;;;;32.47;16.35;;;3.50;21.30;;;;;;4913646;28;20422;-74
2022/03/10 06:12:53;;;;;;;27.75;15.75;;;3.50;20.80;;;;;;4931781;28;20490;-74
2022/03/10 06:15:19;;;;;;;31.23;16.37;;;3.50;21.30;;;;;;4925468;29;20875;-72
2022/03/10 06:17:45;;;;;;;30.13;15.93;;;3.50;21.90;;;;;;4929162;28;20982;-73
2022/03/10 06:20:13;;;;;;;27.02;15.60;;;3.40;22.10;;;;;;4929674;28;20962;-73
2022/03/10 06:22:39;;;;;;;32.67;16.25;;;3.50;21.30;;;;;;4912913;28;20491;-73
2022/03/10 06:25:05;;;;;;;26.02;15.00;;;3.50;21.80;;;;;;4925476;28;20882;-73
2022/03/10 06:27:31;;;;;;;30.05;16.00;;;3.50;22.10;;;;;;4930773;28;20919;-74
2022/03/10 06:29:57;;;;;;;28.20;15.90;;;3.50;21.90;;;;;;4929704;28;20412;-73
2022/03/10 06:32:24;;;;;;;28.27;16.10;;;3.60;22.30;;;;;;4930463;29;20411;-73
2022/03/10 06:34:52;;;;;;;34.78;16.30;;;3.60;21.70;;;;;;4936197;28;20396;-74
2022/03/10 06:37:19;;;;;;;27.75;16.08;;;3.70;21.60;;;;;;4929452;28;20758;-74
2022/03/10 06:39:45;;;;;;;34.70;15.80;;;3.70;22.00;;;;;;4929852;29;20465;-74
2022/03/10 06:42:11;;;;;;;34.45;15.88;;;3.80;20.90;;;;;;4929748;29;20411;-74
2022/03/10 06:44:37;;;;;;;32.40;16.17;;;3.80;21.10;;;;;;4930580;29;20769;-74
2022/03/10 06:47:08;;;;;;;33.92;17.08;;;3.90;20.90;;;;;;4930234;28;20415;-73
2022/03/10 06:49:33;;;;;;;32.58;16.02;;;3.90;20.30;;;;;;4930748;28;20408;-73
2022/03/10 06:51:59;;;;;;;26.73;15.00;;;4.00;20.90;;;;;;4929902;29;20422;-73
2022/03/10 06:54:25;;;;;;;34.78;17.00;;;4.20;20.20;;;;;;4929514;29;20785;-74
2022/03/10 06:56:51;;;;;;;30.03;16.93;;;4.20;19.80;;;;;;4930546;28;20416;-74
2022/03/10 06:59:17;;;;;;;31.42;16.40;;;4.20;19.90;;;;;;4929488;28;20435;-74
2022/03/10 07:01:42;;;;;;;30.83;15.93;;;4.20;19.80;;;;;;4932366;29;20414;-74
2022/03/10 07:04:08;;;;;;;31.97;16.50;;;4.30;19.40;;;;;;4932717;28;20458;-74
2022/03/10 07:06:34;;;;;;;29.43;15.93;;;4.30;19.60;;;;;;4915390;28;20443;-75
2022/03/10 07:08:59;;;;;;;30.90;15.70;;;4.50;19.50;;;;;;4933845;28;20434;-74
2022/03/10 07:11:25;;;;;;;28.85;15.75;;;4.60;19.20;;;;;;4933202;29;20754;-74
2022/03/10 07:13:52;;;;;;;31.33;16.02;;;4.70;19.20;;;;;;4933654;28;20404;-74
2022/03/10 07:16:18;;;;;;;33.67;16.80;;;4.70;18.80;;;;;;4932252;28;20424;-74
2022/03/10 07:18:50;;;;;;;32.63;15.85;;;4.80;18.40;;;;;;4933145;28;20510;-74
2022/03/10 07:21:19;;;;;;;33.40;16.20;;;4.90;18.30;;;;;;4931847;29;20444;-72
2022/03/10 07:23:45;;;;;;;30.40;16.52;;;5.00;18.60;;;;;;4932012;29;20412;-73
2022/03/10 07:26:12;;;;;;;28.73;16.05;;;5.10;18.60;;;;;;4933690;28;21162;-72
2022/03/10 07:28:38;;;;;;;28.42;16.00;;;5.10;18.20;;;;;;4933080;28;20423;-74
2022/03/10 07:31:03;;;;;;;28.08;15.90;;;5.20;17.70;;;;;;4932454;29;20415;-74
2022/03/10 07:33:29;;;;;;;31.20;16.67;;;5.30;17.80;;;;;;4935324;28;20443;-74
2022/03/10 07:35:55;;;;;;;30.13;16.57;;;5.40;17.30;;;;;;4926218;28;20411;-74
2022/03/10 07:38:20;;;;;;;29.03;16.03;;;5.50;17.40;;;;;;4931749;29;20415;-74
2022/03/10 07:40:46;;;;;;;26.88;15.25;;;5.60;17.10;;;;;;4932942;28;20399;-74
2022/03/10 07:43:12;;;;;;;30.08;16.60;;;5.70;16.90;;;;;;4932780;28;20542;-74
2022/03/10 07:45:38;;;;;;;30.65;15.95;;;5.90;16.40;;;;;;4929974;28;20541;-72
2022/03/10 07:48:04;;;;;;;28.97;16.00;;;6.00;15.60;;;;;;4961900;22;20973;-76
2022/03/10 07:50:30;;;;;;;32.00;16.10;;;6.10;16.10;;;;;;4913801;28;20418;-76
2022/03/10 07:52:55;;;;;;;31.03;16.67;;;6.10;15.50;;;;;;4929995;28;20416;-77
2022/03/10 07:55:21;;;;;;;33.27;15.30;;;6.20;15.20;;;;;;4932708;28;20428;-75
2022/03/10 07:57:46;;;;;;;28.27;16.37;;;6.40;15.20;;;;;;4922427;28;20423;-75
2022/03/10 08:00:12;;;;;;;26.80;16.30;;;6.60;14.60;;;;;;4951493;28;20447;-76
2022/03/10 08:02:38;;;;;;;30.45;16.70;;;6.70;14.80;;;;;;4940364;28;20724;-75
2022/03/10 08:05:04;;;;;;;29.30;16.52;;;6.80;14.60;;;;;;4943970;28;20472;-77
2022/03/10 08:07:34;;;;;;;32.80;16.50;;;7.10;13.90;;;;;;4931261;28;20410;-75
2022/03/10 08:10:06;;;;;;;35.72;17.30;;;7.10;14.10;;;;;;4954927;28;20448;-77
2022/03/10 08:12:33;;;;;;;30.92;16.45;;;7.20;15.10;;;;;;4953350;28;20418;-75
2022/03/10 08:14:59;;;;;;;32.35;15.98;;;7.30;13.80;;;;;;4950450;28;20406;-76
2022/03/10 08:17:25;;;;;;;37.22;17.30;;;7.40;14.00;;;;;;4955621;28;20413;-76
2022/03/10 08:19:51;;;;;;;33.00;17.55;;;7.60;14.00;;;;;;4936578;28;20415;-75
2022/03/10 08:22:18;;;;;;;32.33;16.85;;;7.60;13.50;;;;;;4951608;28;20411;-76
2022/03/10 08:24:46;;;;;;;29.67;16.37;;;7.70;14.00;;;;;;4957845;28;20406;-76
2022/03/10 08:27:15;;;;;;;35.78;17.60;;;7.90;13.10;;;;;;4944165;28;20416;-76
2022/03/10 08:29:41;;;;;;;31.02;17.42;;;8.00;13.30;;;;;;4940830;28;20408;-75
2022/03/10 08:32:08;;;;;;;37.57;18.23;;;8.10;12.90;;;;;;4951697;28;20487;-76
2022/03/10 08:34:35;;;;;;;36.45;16.98;;;8.10;13.10;;;;;;4947912;28;20406;-77
2022/03/10 08:37:00;;;;;;;30.63;16.88;;;8.30;13.10;;;;;;4929868;28;20421;-77
2022/03/10 08:39:26;;;;;;;29.90;16.85;;;8.40;12.90;;;;;;4948927;28;20398;-75
2022/03/10 08:41:53;;;;;;;32.35;17.08;;;8.50;12.00;;;;;;4942984;28;20468;-74
2022/03/10 08:44:20;;;;;;;35.33;18.80;;;8.70;12.60;;;;;;4954992;28;20456;-76
2022/03/10 08:46:46;;;;;;;33.63;18.20;;;8.70;11.20;;;;;;4952816;28;20421;-77
2022/03/10 08:49:13;;;;;;;32.67;16.88;;;8.90;10.70;;;;;;4951983;28;20579;-76
2022/03/10 08:51:39;;;;;;;34.13;18.87;;;9.00;11.50;;;;;;4952836;29;20775;-76
2022/03/10 08:54:05;;;;;;;35.08;17.70;;;9.10;10.70;;;;;;4954674;28;20415;-76
2022/03/10 08:56:30;;;;;;;34.28;17.38;;;9.20;10.20;;;;;;4955236;28;20423;-76
2022/03/10 08:58:56;;;;;;;32.13;17.95;;;9.40;10.20;;;;;;4956050;29;20406;-75
2022/03/10 09:01:22;;;;;;;33.70;18.00;;;9.50;10.10;;;;;;4943774;28;20449;-76
2022/03/10 09:03:47;;;;;;;34.33;18.20;;;9.60;9.60;;;;;;4949056;28;20414;-76
2022/03/10 09:06:14;;;;;;;33.37;17.80;;;9.80;9.20;;;;;;4934519;28;20502;-74
2022/03/10 09:08:40;;;;;;;32.55;17.38;;;9.80;9.50;;;;;;4956815;28;20402;-76
2022/03/10 09:11:06;;;;;;;34.50;20.10;;;10.00;10.30;;;;;;4950058;29;20405;-76
2022/03/10 09:13:32;;;;;;;37.97;19.85;;;10.10;9.10;;;;;;4953986;28;20411;-76
2022/03/10 09:15:58;;;;;;;35.33;19.40;;;10.30;10.70;;;;;;4961251;28;20474;-76
2022/03/10 09:18:24;;;;;;;39.17;19.23;;;10.40;8.50;;;;;;4952632;28;20467;-77
2022/03/10 09:20:50;;;;;;;34.73;18.73;;;10.60;8.10;;;;;;4949747;28;20400;-76
2022/03/10 09:23:15;;;;;;;36.60;20.00;;;10.70;8.90;;;;;;4957593;28;20407;-75
2022/03/10 09:25:41;;;;;;;35.97;18.30;;;10.70;7.40;;;;;;4970949;28;20440;-76
2022/03/10 09:28:07;;;;;;;34.87;19.13;;;10.80;7.60;;;;;;4945502;28;20427;-75
2022/03/10 09:30:33;;;;;;;38.75;18.88;;;11.00;7.30;;;;;;4953970;28;20918;-77
2022/03/10 09:32:58;;;;;;;36.20;19.38;;;11.20;10.90;;;;;;4933682;28;20402;-76
2022/03/10 09:35:25;;;;;;;36.45;20.17;;;11.20;6.30;;;;;;4952028;28;20422;-77
2022/03/10 09:37:52;;;;;;;40.63;21.00;;;11.40;7.10;;;;;;4948599;28;20476;-76
2022/03/10 09:40:18;;;;;;;41.72;20.08;;;11.50;6.30;;;;;;4948929;28;20403;-77
2022/03/10 09:42:47;;;;;;;39.95;20.48;;;11.60;6.60;;;;;;4952490;29;20402;-76
2022/03/10 09:45:15;;;;;;;38.10;20.00;;;11.70;6.00;;;;;;4947958;28;20415;-77
2022/03/10 09:47:42;;;;;;;41.28;20.35;;;11.70;5.60;;;;;;4944532;29;20938;-76
2022/03/10 09:50:10;;;;;;;38.25;20.83;;;11.70;5.30;;;;;;4943741;28;20526;-76
2022/03/10 09:52:36;;;;;;;37.53;20.42;;;11.70;6.20;;;;;;4925574;28;20464;-76
2022/03/10 09:55:04;;;;;;;32.80;19.02;;;11.80;5.60;;;;;;4927639;28;20402;-76
2022/03/10 09:57:29;;;;;;;45.47;22.00;;;11.90;6.00;;;;;;4982015;28;20770;-77
2022/03/10 09:59:59;;;;;;;39.73;20.63;;;12.00;5.20;;;;;;4948190;28;20530;-76
2022/03/10 10:02:26;;;;;;;38.70;21.65;;;12.10;5.10;;;;;;4984263;28;20411;-78
2022/03/10 10:04:52;;;;;;;39.92;20.63;;;12.20;5.20;;;;;;4969719;28;20489;-81
2022/03/10 10:07:24;;;;;;;39.47;21.80;;;12.30;5.00;;;;;;4956375;28;20414;-83
2022/03/10 10:09:53;;;;;;;39.30;21.50;;;12.50;5.20;;;;;;4957333;28;20394;-79
2022/03/10 10:12:22;;;;;;;40.15;21.17;;;12.60;5.00;;;;;;4950086;28;20786;-79
2022/03/10 10:14:49;;;;;;;37.45;20.90;;;12.70;5.90;;;;;;4955825;28;20413;-78
2022/03/10 10:17:15;;;;;;;40.97;21.33;;;12.80;4.60;;;;;;4974629;28;20411;-80
2022/03/10 10:19:42;;;;;;;39.85;21.77;;;12.80;3.60;;;;;;4945363;28;20417;-78
2022/03/10 10:22:15;;;;;;;37.22;21.60;;;12.90;4.00;;;;;;4969074;28;20409;-77
2022/03/10 10:24:54;;;;;;;45.20;22.17;;;12.90;4.60;;;;;;4982481;28;20410;-79
2022/03/10 10:27:25;;;;;;;40.10;21.67;;;12.90;3.20;;;;;;4952747;28;20448;-81
2022/03/10 10:29:54;;;;;;;37.53;19.98;;;13.00;3.40;;;;;;4976103;28;20413;-81
2022/03/10 10:32:34;;;;;;;39.33;20.15;;;13.00;4.60;;;;;;4972348;28;20461;-78
2022/03/10 10:35:02;;;;;;;44.35;21.10;;;13.20;3.30;;;;;;4945862;28;20410;-80
2022/03/10 10:37:29;;;;;;;39.00;21.10;;;13.20;3.60;;;;;;4943557;28;20401;-80
2022/03/10 10:39:56;;;;;;;38.83;20.58;;;13.90;3.50;;;;;;4961403;28;20413;-77
2022/03/10 10:42:30;;;;;;;39.78;20.98;;;13.50;3.20;;;;;;4968775;28;20412;-78
2022/03/10 10:45:00;;;;;;;37.25;20.30;;;13.60;2.20;;;;;;4947540;28;20409;-80
2022/03/10 10:47:27;;;;;;;44.95;21.48;;;13.60;4.00;;;;;;4959130;28;20471;-80
2022/03/10 10:50:04;;;;;;;41.55;21.90;;;13.80;2.70;;;;;;4950119;28;20415;-80
2022/03/10 10:52:41;;;;;;;41.42;20.88;;;13.80;2.30;;;;;;4968519;28;20397;-78
2022/03/10 10:55:11;;;;;;;44.25;22.88;;;13.80;2.40;;;;;;4988295;28;20407;-78
2022/03/10 10:57:38;;;;;;;40.03;21.63;;;13.80;2.70;;;;;;4940158;28;20402;-77
2022/03/10 11:00:12;;;;;;;40.97;21.93;;;13.90;2.10;;;;;;4955350;28;20489;-77
2022/03/10 11:02:43;;;;;;;40.70;20.80;;;14.00;1.40;;;;;;4969468;28;20397;-80
2022/03/10 11:05:11;;;;;;;41.63;21.73;;;14.00;1.50;;;;;;4945549;28;20410;-77
2022/03/10 11:07:40;;;;;;;39.83;20.65;;;14.00;1.60;;;;;;4934212;28;20414;-78
2022/03/10 11:10:07;;;;;;;38.03;21.40;;;14.00;1.20;;;;;;4959016;28;20415;-80
2022/03/10 11:12:37;;;;;;;37.22;21.55;;;13.90;1.00;;;;;;4963511;28;20686;-82
2022/03/10 11:15:03;;;;;;;39.75;21.80;;;13.90;1.00;;;;;;4955104;28;20414;-82
2022/03/10 11:17:29;;;;;;;36.88;20.88;;;14.00;1.00;;;;;;4982864;28;20410;-77
2022/03/10 11:19:58;;;;;;;43.50;21.88;;;14.00;1.20;;;;;;4952929;28;20409;-78
2022/03/10 11:23:02;;;;;;;42.65;20.55;;;14.20;1.20;;;;;;4981912;28;20435;-76
2022/03/10 11:25:48;;;;;;;40.83;21.40;;;14.40;1.00;;;;;;4958196;28;20412;-82
2022/03/10 11:28:19;;;;;;;41.28;21.67;;;14.40;1.00;;;;;;4973948;28;20416;-78
2022/03/10 11:30:51;;;;;;;35.63;20.60;;;14.50;1.20;;;;;;4956833;28;20409;-77
2022/03/10 11:33:17;;;;;;;47.38;22.45;;;14.60;1.50;;;;;;4949176;28;20524;-76
2022/03/10 11:35:48;;;;;;;38.73;21.20;;;14.60;1.00;;;;;;4955669;28;20469;-77
2022/03/10 11:38:16;;;;;;;38.40;20.77;;;14.70;1.00;;;;;;4961858;29;20746;-81
2022/03/10 11:50:52;;;;;;;39.22;21.58;;;14.80;1.00;;;;;;4949400;28;20478;-77
2022/03/10 11:53:18;;;;;;;38.05;20.20;;;15.00;1.00;;;;;;4951488;28;20419;-79
2022/03/10 11:55:51;;;;;;;36.88;19.58;;;15.00;1.00;;;;;;4944859;28;20425;-78
2022/03/10 11:58:18;;;;;;;36.75;19.80;;;15.00;1.00;;;;;;4961786;28;20495;-79
2022/03/10 12:00:44;;;;;;;34.10;19.80;;;15.10;1.00;;;;;;4948331;28;20442;-78
2022/03/10 12:03:33;;;;;;;33.63;19.63;;;15.10;1.00;;;;;;4947137;28;20413;-78
2022/03/10 12:06:00;;;;;;;34.58;19.15;;;15.30;1.00;;;;;;4961083;28;20776;-77
2022/03/10 12:08:29;;;;;;;39.13;20.33;;;15.40;1.00;;;;;;4947377;28;20464;-79
2022/03/10 12:10:55;;;;;;;34.72;19.00;;;15.30;1.00;;;;;;4942546;28;20406;-79
2022/03/10 12:13:26;;;;;;;36.13;20.02;;;15.40;1.00;;;;;;4957341;28;20426;-78
2022/03/10 12:15:52;;;;;;;39.55;19.90;;;15.50;1.00;;;;;;4955658;28;20453;-79
2022/03/10 12:18:20;;;;;;;35.60;20.17;;;15.50;1.00;;;;;;4960656;28;20482;-77
2022/03/10 12:20:47;;;;;;;37.72;19.35;;;15.40;1.00;;;;;;4967404;28;20620;-77
2022/03/10 12:23:15;;;;;;;33.95;18.05;;;15.40;1.00;;;;;;4943499;28;20448;-75
2022/03/10 12:25:58;;;;;;;36.28;20.15;;;15.50;1.00;;;;;;4955927;28;20418;-79
2022/03/10 12:28:39;;;;;;;34.33;18.15;;;15.50;1.00;;;;;;4967476;28;20455;-77
2022/03/10 12:31:16;;;;;;;31.17;18.15;;;15.60;1.00;;;;;;4967740;28;20394;-77
2022/03/10 12:33:55;;;;;;;33.53;18.25;;;15.50;1.00;;;;;;4955412;28;20417;-78
2022/03/10 12:36:33;;;;;;;34.72;17.88;;;15.60;1.00;;;;;;4952629;28;20433;-78
2022/03/10 12:39:04;;;;;;;31.88;17.92;;;15.70;1.00;;;;;;4965496;28;20435;-78
2022/03/10 12:41:33;;;;;;;33.87;17.73;;;15.60;1.00;;;;;;4961137;28;20556;-80
2022/03/10 12:44:01;;;;;;;37.90;17.92;;;15.60;1.00;;;;;;4959010;28;20416;-80
2022/03/10 12:46:29;;;;;;;34.47;17.60;;;15.60;1.00;;;;;;4957793;28;20976;-75
2022/03/10 12:49:05;;;;;;;26.92;17.48;;;15.70;1.00;;;;;;4957261;29;20471;-80
2022/03/10 12:51:33;;;;;;;29.88;17.50;;;15.70;1.00;;;;;;4950741;28;20461;-79